Wetterdaten: Woche 11.04.16 - 17.04.16 (KW15)
Datum Zeit Temp. Aussen Temp. o. S. +5cm Feuchte Auss BlattFeu 1 Luftdruck Regen Sonnenschein Regendauer Solar Windben Empfang
11.04.2016 00:00 11,0 C 10,9 C 8,9 C 71 % 0 lf 1010,6 hPa 0,0 l/m 0,00 h 0,00 h 0 W/m 12,6 km/h (3 Bft) 92,94 %
11.04.2016 01:00 10,8 C 10,8 C 8,9 C 71 % 0 lf 1010,8 hPa 0,0 l/m 0,00 h 0,00 h 0 W/m 15,0 km/h (3 Bft) 97,36 %
11.04.2016 02:00 10,6 C 10,5 C 8,8 C 72 % 0 lf 1011,0 hPa 0,0 l/m 0,00 h 0,00 h 0 W/m 17,9 km/h (3 Bft) 97,30 %
11.04.2016 03:00 10,3 C 10,1 C 8,6 C 73 % 0 lf 1011,0 hPa 0,0 l/m 0,00 h 0,00 h 0 W/m 22,9 km/h (4 Bft) 95,23 %
11.04.2016 04:00 9,7 C 9,8 C 8,2 C 73 % 0 lf 1011,0 hPa 0,0 l/m 0,00 h 0,00 h 0 W/m 23,2 km/h (4 Bft) 96,17 %
11.04.2016 05:00 9,5 C 9,4 C 7,9 C 72 % 0 lf 1010,8 hPa 0,0 l/m 0,00 h 0,00 h 0 W/m 21,9 km/h (4 Bft) 96,73 %
11.04.2016 06:00 9,1 C 9,1 C 7,5 C 72 % 0 lf 1010,7 hPa 0,0 l/m 0,00 h 0,00 h 7 W/m 20,8 km/h (4 Bft) 95,51 %
11.04.2016 07:00 8,8 C 9,1 C 7,4 C 73 % 0 lf 1010,8 hPa 0,0 l/m 0,70 h 0,00 h 63 W/m 22,2 km/h (4 Bft) 98,22 %
11.04.2016 08:00 9,6 C 10,3 C 8,6 C 72 % 0 lf 1010,9 hPa 0,0 l/m 1,00 h 0,00 h 229 W/m 32,0 km/h (5 Bft) 93,75 %
11.04.2016 09:00 11,3 C 15,3 C 11,9 C 68 % 0 lf 1010,8 hPa 0,0 l/m 1,00 h 0,00 h 396 W/m 35,9 km/h (5 Bft) 96,59 %
11.04.2016 10:00 13,6 C 18,3 C 17,8 C 63 % 0 lf 1010,8 hPa 0,0 l/m 1,00 h 0,00 h 546 W/m 37,7 km/h (5 Bft) 97,65 %
11.04.2016 11:00 15,5 C 20,5 C 19,4 C 59 % 0 lf 1010,6 hPa 0,0 l/m 0,97 h 0,00 h 640 W/m 32,7 km/h (5 Bft) 94,11 %
11.04.2016 12:00 17,4 C 22,6 C 21,6 C 56 % 0 lf 1010,3 hPa 0,0 l/m 1,00 h 0,00 h 738 W/m 28,7 km/h (4 Bft) 97,22 %
11.04.2016 13:00 18,8 C 23,7 C 18,8 C 52 % 0 lf 1009,6 hPa 0,0 l/m 1,00 h 0,00 h 772 W/m 32,2 km/h (5 Bft) 97,72 %
11.04.2016 14:00 20,0 C 24,7 C 18,5 C 49 % 0 lf 1009,0 hPa 0,0 l/m 1,00 h 0,00 h 736 W/m 33,0 km/h (5 Bft) 94,23 %
11.04.2016 15:00 20,6 C 24,6 C 19,1 C 47 % 0 lf 1008,4 hPa 0,0 l/m 1,00 h 0,00 h 644 W/m 30,6 km/h (5 Bft) 96,59 %
11.04.2016 16:00 21,1 C 25,0 C 19,4 C 46 % 0 lf 1008,0 hPa 0,0 l/m 1,00 h 0,00 h 548 W/m 27,1 km/h (4 Bft) 98,79 %
11.04.2016 17:00 21,0 C 23,8 C 18,9 C 46 % 0 lf 1007,8 hPa 0,0 l/m 1,00 h 0,00 h 376 W/m 24,0 km/h (4 Bft) 93,80 %
11.04.2016 18:00 20,6 C 21,0 C 18,0 C 48 % 0 lf 1007,7 hPa 0,0 l/m 0,97 h 0,00 h 197 W/m 21,6 km/h (4 Bft) 96,58 %
11.04.2016 19:00 19,5 C 19,0 C 16,6 C 50 % 0 lf 1007,7 hPa 0,0 l/m 0,13 h 0,00 h 56 W/m 13,4 km/h (3 Bft) 96,87 %
11.04.2016 20:00 18,0 C 17,2 C 14,8 C 55 % 0 lf 1008,0 hPa 0,0 l/m 0,00 h 0,00 h 10 W/m 12,5 km/h (3 Bft) 96,02 %
11.04.2016 21:00 16,9 C 16,6 C 14,6 C 58 % 0 lf 1008,4 hPa 0,0 l/m 0,00 h 0,00 h 0 W/m 14,4 km/h (3 Bft) 95,16 %
11.04.2016 22:00 16,3 C 16,1 C 14,1 C 58 % 0 lf 1008,7 hPa 0,0 l/m 0,00 h 0,00 h 0 W/m 19,6 km/h (3 Bft) 96,65 %
11.04.2016 23:00 15,5 C 14,9 C 13,1 C 60 % 0 lf 1008,8 hPa 0,0 l/m 0,00 h 0,07 h 0 W/m 11,2 km/h (2 Bft) 96,80 %
12.04.2016 00:00 14,6 C 13,7 C 11,6 C 67 % 5 lf 1009,1 hPa 0,0 l/m 0,00 h 0,60 h 0 W/m 4,9 km/h (1 Bft) 95,79 %
12.04.2016 01:00 13,8 C 11,6 C 10,0 C 77 % 15 lf 1009,3 hPa 0,4 l/m 0,00 h 1,00 h 0 W/m 5,3 km/h (1 Bft) 94,45 %
12.04.2016 02:00 12,5 C 10,7 C 9,4 C 85 % 15 lf 1008,9 hPa 0,4 l/m 0,00 h 0,27 h 0 W/m 9,1 km/h (2 Bft) 96,79 %
12.04.2016 03:00 11,5 C 10,5 C 8,8 C 87 % 15 lf 1008,8 hPa 0,0 l/m 0,00 h 0,00 h 0 W/m 6,6 km/h (2 Bft) 97,37 %
12.04.2016 04:00 10,6 C 9,2 C 7,5 C 86 % 13 lf 1008,5 hPa 0,0 l/m 0,00 h 0,00 h 0 W/m 8,4 km/h (2 Bft) 96,29 %
12.04.2016 05:00 9,7 C 8,5 C 6,6 C 86 % 0 lf 1008,3 hPa 0,0 l/m 0,00 h 0,00 h 0 W/m 6,0 km/h (2 Bft) 93,45 %
12.04.2016 06:00 8,8 C 8,0 C 6,2 C 88 % 0 lf 1008,5 hPa 0,0 l/m 0,00 h 0,00 h 7 W/m 8,3 km/h (2 Bft) 99,00 %
12.04.2016 07:00 8,4 C 8,5 C 6,3 C 90 % 0 lf 1008,8 hPa 0,0 l/m 0,50 h 0,00 h 64 W/m 6,4 km/h (2 Bft) 95,16 %
12.04.2016 08:00 9,2 C 10,6 C 7,9 C 91 % 0 lf 1009,1 hPa 0,0 l/m 1,00 h 0,00 h 249 W/m 6,2 km/h (2 Bft) 96,52 %
12.04.2016 09:00 12,3 C 17,5 C 12,4 C 84 % 0 lf 1009,4 hPa 0,0 l/m 1,00 h 0,00 h 410 W/m 9,3 km/h (2 Bft) 95,09 %
12.04.2016 10:00 15,1 C 21,0 C 18,2 C 71 % 0 lf 1009,4 hPa 0,0 l/m 0,67 h 0,00 h 431 W/m 9,1 km/h (2 Bft) 96,21 %
12.04.2016 11:00 17,5 C 26,1 C 21,2 C 63 % 0 lf 1009,1 hPa 0,0 l/m 0,88 h 0,00 h 654 W/m 14,8 km/h (3 Bft) 96,72 %
12.04.2016 12:00 18,6 C 26,5 C 22,9 C 57 % 0 lf 1008,8 hPa 0,0 l/m 0,90 h 0,00 h 741 W/m 19,6 km/h (3 Bft) 96,58 %
12.04.2016 13:00 19,2 C 25,1 C 19,1 C 53 % 0 lf 1008,5 hPa 0,0 l/m 0,83 h 0,00 h 680 W/m 18,3 km/h (3 Bft) 95,01 %
12.04.2016 14:00 20,2 C 27,4 C 18,7 C 45 % 0 lf 1007,9 hPa 0,0 l/m 1,00 h 0,00 h 788 W/m 22,5 km/h (4 Bft) 96,72 %
12.04.2016 15:00 21,0 C 27,4 C 18,6 C 42 % 0 lf 1007,3 hPa 0,0 l/m 1,00 h 0,00 h 698 W/m 18,1 km/h (3 Bft) 97,28 %
12.04.2016 16:00 20,2 C 22,5 C 18,1 C 44 % 0 lf 1006,7 hPa 0,0 l/m 0,27 h 0,00 h 257 W/m 10,8 km/h (2 Bft) 95,02 %
12.04.2016 17:00 19,1 C 19,2 C 16,7 C 47 % 0 lf 1006,3 hPa 0,0 l/m 0,00 h 0,00 h 94 W/m 6,7 km/h (2 Bft) 97,44 %
12.04.2016 18:00 14,2 C 12,3 C 11,2 C 73 % 10 lf 1007,5 hPa 0,0 l/m 0,00 h 0,67 h 21 W/m 33,0 km/h (5 Bft) 94,52 %
12.04.2016 19:00 11,0 C 10,0 C 9,1 C 90 % 15 lf 1008,5 hPa 3,4 l/m 0,00 h 1,00 h 7 W/m 15,9 km/h (3 Bft) 96,30 %
12.04.2016 20:00 10,3 C 9,4 C 8,8 C 93 % 15 lf 1007,8 hPa 0,4 l/m 0,00 h 0,30 h 0 W/m 7,8 km/h (2 Bft) 97,08 %
12.04.2016 21:00 10,1 C 9,4 C 8,9 C 94 % 15 lf 1008,1 hPa 0,0 l/m 0,00 h 0,00 h 0 W/m 4,8 km/h (1 Bft) 97,36 %
12.04.2016 22:00 9,9 C 9,4 C 8,4 C 95 % 15 lf 1008,2 hPa 0,0 l/m 0,00 h 0,00 h 0 W/m 3,6 km/h (1 Bft) 92,96 %
12.04.2016 23:00 9,7 C 9,3 C 8,2 C 95 % 15 lf 1008,3 hPa 0,0 l/m 0,00 h 0,00 h 0 W/m 1,0 km/h (0 Bft) 98,43 %
13.04.2016 00:00 9,3 C 8,5 C 7,5 C 95 % 15 lf 1008,3 hPa 0,0 l/m 0,00 h 0,00 h 0 W/m 5,7 km/h (1 Bft) 96,05 %
13.04.2016 01:00 8,6 C 7,1 C 6,5 C 95 % 15 lf 1008,4 hPa 0,0 l/m 0,00 h 0,00 h 0 W/m 0,8 km/h (0 Bft) 96,58 %
13.04.2016 02:00 7,6 C 6,5 C 5,5 C 95 % 15 lf 1008,1 hPa 0,0 l/m 0,00 h 0,00 h 0 W/m 0,0 km/h (0 Bft) 95,58 %
13.04.2016 03:00 6,9 C 6,2 C 5,3 C 95 % 15 lf 1008,3 hPa 0,0 l/m 0,00 h 0,00 h 0 W/m 3,8 km/h (1 Bft) 93,95 %
13.04.2016 04:00 6,3 C 5,2 C 4,7 C 96 % 15 lf 1008,5 hPa 0,0 l/m 0,00 h 0,00 h 0 W/m 1,2 km/h (1 Bft) 96,94 %
13.04.2016 05:00 5,2 C 4,4 C 3,6 C 96 % 15 lf 1008,0 hPa 0,0 l/m 0,00 h 0,07 h 0 W/m 4,3 km/h (1 Bft) 97,01 %
13.04.2016 06:00 4,7 C 4,7 C 4,0 C 96 % 15 lf 1007,8 hPa 0,0 l/m 0,00 h 0,00 h 7 W/m 0,4 km/h (0 Bft) 94,95 %
13.04.2016 07:00 5,2 C 5,9 C 4,8 C 97 % 15 lf 1007,7 hPa 0,0 l/m 0,00 h 0,00 h 35 W/m 0,0 km/h (0 Bft) 94,89 %
13.04.2016 08:00 6,5 C 7,3 C 6,3 C 98 % 15 lf 1007,7 hPa 0,2 l/m 0,00 h 0,07 h 66 W/m 5,7 km/h (1 Bft) 98,22 %
13.04.2016 09:00 7,9 C 8,7 C 7,9 C 98 % 15 lf 1007,7 hPa 0,0 l/m 0,00 h 0,00 h 122 W/m 8,1 km/h (2 Bft) 95,16 %
13.04.2016 10:00 8,8 C 9,8 C 9,0 C 98 % 14 lf 1007,9 hPa 0,0 l/m 0,00 h 0,00 h 156 W/m 9,8 km/h (2 Bft) 97,08 %
13.04.2016 11:00 9,1 C 10,9 C 9,5 C 98 % 1 lf 1008,0 hPa 0,0 l/m 0,00 h 0,00 h 184 W/m 10,1 km/h (2 Bft) 95,59 %
13.04.2016 12:00 9,6 C 11,7 C 10,2 C 98 % 0 lf 1008,0 hPa 0,0 l/m 0,00 h 0,00 h 224 W/m 7,6 km/h (2 Bft) 96,15 %
13.04.2016 13:00 11,2 C 15,1 C 12,3 C 95 % 0 lf 1007,9 hPa 0,0 l/m 0,43 h 0,00 h 359 W/m 5,0 km/h (1 Bft) 97,37 %
13.04.2016 14:00 12,9 C 16,0 C 12,9 C 84 % 0 lf 1008,0 hPa 0,0 l/m 0,10 h 0,00 h 301 W/m 5,0 km/h (1 Bft) 96,65 %
13.04.2016 15:00 13,2 C 15,1 C 12,3 C 78 % 0 lf 1008,0 hPa 0,0 l/m 0,00 h 0,00 h 207 W/m 4,8 km/h (1 Bft) 94,02 %
13.04.2016 16:00 13,2 C 14,9 C 12,2 C 80 % 0 lf 1007,8 hPa 0,0 l/m 0,00 h 0,00 h 164 W/m 6,0 km/h (2 Bft) 99,08 %
13.04.2016 17:00 13,4 C 14,7 C 12,5 C 78 % 0 lf 1007,8 hPa 0,0 l/m 0,00 h 0,00 h 147 W/m 5,0 km/h (1 Bft) 96,80 %
13.04.2016 18:00 13,4 C 14,1 C 11,9 C 77 % 0 lf 1007,9 hPa 0,0 l/m 0,00 h 0,00 h 91 W/m 6,1 km/h (2 Bft) 93,74 %
13.04.2016 19:00 13,0 C 12,8 C 11,0 C 80 % 0 lf 1008,1 hPa 0,0 l/m 0,00 h 0,00 h 44 W/m 2,8 km/h (1 Bft) 97,66 %
13.04.2016 20:00 12,2 C 10,8 C 9,3 C 80 % 0 lf 1008,4 hPa 0,0 l/m 0,00 h 0,00 h 10 W/m 2,7 km/h (1 Bft) 97,72 %
13.04.2016 21:00 10,9 C 9,5 C 8,1 C 83 % 0 lf 1008,9 hPa 0,0 l/m 0,00 h 0,00 h 0 W/m 1,7 km/h (1 Bft) 95,37 %
13.04.2016 22:00 10,0 C 9,1 C 7,8 C 85 % 0 lf 1009,2 hPa 0,0 l/m 0,00 h 0,00 h 0 W/m 0,0 km/h (0 Bft) 96,87 %
13.04.2016 23:00 9,3 C 8,1 C 6,9 C 88 % 0 lf 1009,7 hPa 0,0 l/m 0,00 h 0,00 h 0 W/m 2,8 km/h (1 Bft) 95,58 %
14.04.2016 00:00 8,5 C 7,3 C 6,1 C 89 % 1 lf 1010,0 hPa 0,0 l/m 0,00 h 0,00 h 0 W/m 2,7 km/h (1 Bft) 96,18 %
14.04.2016 01:00 7,5 C 6,2 C 5,2 C 90 % 7 lf 1010,3 hPa 0,0 l/m 0,00 h 0,00 h 0 W/m 1,3 km/h (1 Bft) 97,94 %
14.04.2016 02:00 6,7 C 5,5 C 4,7 C 91 % 15 lf 1010,5 hPa 0,0 l/m 0,00 h 0,00 h 0 W/m 2,2 km/h (1 Bft) 94,73 %
14.04.2016 03:00 6,3 C 5,8 C 4,8 C 93 % 15 lf 1010,8 hPa 0,0 l/m 0,00 h 0,00 h 0 W/m 4,0 km/h (1 Bft) 95,51 %
14.04.2016 04:00 5,8 C 4,4 C 3,9 C 93 % 15 lf 1010,8 hPa 0,0 l/m 0,00 h 0,00 h 0 W/m 2,5 km/h (1 Bft) 96,44 %
14.04.2016 05:00 5,2 C 4,2 C 3,5 C 93 % 15 lf 1011,1 hPa 0,0 l/m 0,00 h 0,00 h 0 W/m 3,8 km/h (1 Bft) 98,22 %
14.04.2016 06:00 4,6 C 3,6 C 2,8 C 94 % 15 lf 1011,2 hPa 0,0 l/m 0,00 h 0,00 h 8 W/m 2,2 km/h (1 Bft) 95,73 %
14.04.2016 07:00 4,2 C 4,2 C 3,2 C 94 % 15 lf 1011,3 hPa 0,0 l/m 0,60 h 0,00 h 69 W/m 0,2 km/h (0 Bft) 93,87 %
14.04.2016 08:00 5,9 C 7,2 C 5,8 C 96 % 15 lf 1011,6 hPa 0,0 l/m 1,00 h 0,00 h 219 W/m 2,2 km/h (1 Bft) 97,58 %
14.04.2016 09:00 9,0 C 18,1 C 10,9 C 97 % 10 lf 1012,0 hPa 0,0 l/m 1,00 h 0,00 h 401 W/m 7,4 km/h (2 Bft) 96,73 %
14.04.2016 10:00 13,2 C 24,5 C 18,8 C 82 % 0 lf 1012,4 hPa 0,0 l/m 1,00 h 0,00 h 543 W/m 9,4 km/h (2 Bft) 95,47 %
14.04.2016 11:00 15,8 C 23,3 C 18,0 C 64 % 0 lf 1012,3 hPa 0,0 l/m 0,80 h 0,00 h 528 W/m 9,8 km/h (2 Bft) 97,58 %
14.04.2016 12:00 16,4 C 23,5 C 18,1 C 60 % 0 lf 1012,4 hPa 0,0 l/m 0,70 h 0,00 h 528 W/m 9,3 km/h (2 Bft) 95,23 %
14.04.2016 13:00 17,2 C 22,6 C 16,9 C 58 % 0 lf 1012,3 hPa 0,0 l/m 0,80 h 0,00 h 513 W/m 10,6 km/h (2 Bft) 95,72 %
14.04.2016 14:00 17,5 C 23,5 C 16,4 C 58 % 0 lf 1012,1 hPa 0,0 l/m 0,97 h 0,00 h 593 W/m 10,7 km/h (2 Bft) 97,58 %
14.04.2016 15:00 18,1 C 25,8 C 16,3 C 51 % 0 lf 1011,4 hPa 0,0 l/m 1,00 h 0,00 h 621 W/m 9,0 km/h (2 Bft) 95,09 %
14.04.2016 16:00 18,2 C 22,7 C 16,3 C 50 % 0 lf 1010,8 hPa 0,0 l/m 0,87 h 0,00 h 514 W/m 10,2 km/h (2 Bft) 95,23 %
14.04.2016 17:00 17,8 C 21,3 C 15,8 C 52 % 0 lf 1010,4 hPa 0,0 l/m 0,77 h 0,00 h 365 W/m 10,1 km/h (2 Bft) 96,16 %
14.04.2016 18:00 17,5 C 17,8 C 15,0 C 52 % 0 lf 1010,0 hPa 0,0 l/m 1,00 h 0,00 h 223 W/m 11,5 km/h (2 Bft) 98,01 %
14.04.2016 19:00 16,4 C 16,0 C 13,2 C 55 % 0 lf 1009,6 hPa 0,0 l/m 0,23 h 0,00 h 57 W/m 7,4 km/h (2 Bft) 96,01 %
14.04.2016 20:00 15,1 C 14,3 C 12,1 C 61 % 0 lf 1009,4 hPa 0,0 l/m 0,00 h 0,03 h 8 W/m 8,8 km/h (2 Bft) 94,73 %
14.04.2016 21:00 13,7 C 12,9 C 11,0 C 67 % 0 lf 1009,2 hPa 0,0 l/m 0,00 h 0,13 h 0 W/m 5,3 km/h (1 Bft) 98,08 %
14.04.2016 22:00 12,8 C 12,1 C 10,1 C 69 % 0 lf 1008,5 hPa 0,0 l/m 0,00 h 0,00 h 0 W/m 5,5 km/h (1 Bft) 96,87 %
14.04.2016 23:00 11,8 C 11,0 C 8,9 C 74 % 0 lf 1008,2 hPa 0,0 l/m 0,00 h 0,00 h 0 W/m 5,0 km/h (1 Bft) 95,23 %
15.04.2016 00:00 10,9 C 10,6 C 8,8 C 79 % 0 lf 1007,6 hPa 0,0 l/m 0,00 h 0,00 h 0 W/m 5,1 km/h (1 Bft) 95,89 %
15.04.2016 01:00 10,6 C 10,6 C 9,1 C 81 % 0 lf 1006,8 hPa 0,0 l/m 0,00 h 0,00 h 0 W/m 6,7 km/h (2 Bft) 96,58 %
15.04.2016 02:00 10,7 C 10,3 C 8,9 C 83 % 4 lf 1006,3 hPa 0,0 l/m 0,00 h 0,63 h 0 W/m 12,9 km/h (3 Bft) 96,72 %
15.04.2016 03:00 10,6 C 9,4 C 8,3 C 89 % 15 lf 1006,1 hPa 1,4 l/m 0,00 h 1,00 h 0 W/m 12,3 km/h (3 Bft) 95,24 %
15.04.2016 04:00 10,1 C 9,4 C 8,3 C 92 % 15 lf 1004,9 hPa 1,2 l/m 0,00 h 1,00 h 0 W/m 4,7 km/h (1 Bft) 96,94 %
15.04.2016 05:00 9,7 C 9,0 C 8,0 C 94 % 15 lf 1003,7 hPa 0,2 l/m 0,00 h 0,33 h 0 W/m 9,4 km/h (2 Bft) 95,99 %
15.04.2016 06:00 9,3 C 8,9 C 7,8 C 95 % 15 lf 1002,8 hPa 0,0 l/m 0,00 h 0,40 h 0 W/m 13,0 km/h (3 Bft) 97,44 %
15.04.2016 07:00 9,4 C 9,3 C 8,1 C 96 % 15 lf 1002,3 hPa 0,0 l/m 0,03 h 0,00 h 31 W/m 14,4 km/h (3 Bft) 96,51 %
15.04.2016 08:00 9,9 C 10,3 C 8,9 C 97 % 12 lf 1002,3 hPa 0,0 l/m 0,00 h 0,00 h 68 W/m 18,4 km/h (3 Bft) 95,16 %
15.04.2016 09:00 10,4 C 11,0 C 8,9 C 96 % 0 lf 1002,5 hPa 0,0 l/m 0,00 h 0,00 h 69 W/m 20,0 km/h (4 Bft) 95,87 %
15.04.2016 10:00 11,5 C 14,2 C 10,5 C 92 % 0 lf 1002,6 hPa 0,0 l/m 0,40 h 0,07 h 279 W/m 25,4 km/h (4 Bft) 98,44 %
15.04.2016 11:00 12,6 C 13,9 C 11,9 C 84 % 0 lf 1002,8 hPa 0,0 l/m 0,13 h 0,07 h 187 W/m 28,7 km/h (4 Bft) 94,45 %
15.04.2016 12:00 12,7 C 14,5 C 12,4 C 82 % 0 lf 1003,0 hPa 0,0 l/m 0,08 h 0,10 h 240 W/m 24,8 km/h (4 Bft) 96,15 %
15.04.2016 13:00 14,1 C 17,4 C 13,8 C 72 % 0 lf 1002,5 hPa 0,0 l/m 0,37 h 0,00 h 421 W/m 37,5 km/h (5 Bft) 97,23 %
15.04.2016 14:00 15,7 C 19,8 C 14,5 C 61 % 0 lf 1002,3 hPa 0,0 l/m 0,63 h 0,00 h 536 W/m 40,6 km/h (6 Bft) 96,45 %
15.04.2016 15:00 15,9 C 18,6 C 14,6 C 58 % 0 lf 1002,2 hPa 0,0 l/m 0,27 h 0,00 h 350 W/m 36,1 km/h (5 Bft) 94,48 %
15.04.2016 16:00 16,5 C 20,5 C 15,3 C 57 % 0 lf 1002,2 hPa 0,0 l/m 0,77 h 0,00 h 496 W/m 33,3 km/h (5 Bft) 97,24 %
15.04.2016 17:00 16,5 C 18,6 C 14,4 C 56 % 0 lf 1001,5 hPa 0,0 l/m 0,43 h 0,00 h 275 W/m 26,4 km/h (4 Bft) 96,71 %
15.04.2016 18:00 15,9 C 16,3 C 13,7 C 57 % 0 lf 1001,0 hPa 0,0 l/m 0,33 h 0,00 h 125 W/m 22,0 km/h (4 Bft) 95,15 %
15.04.2016 19:00 15,5 C 15,6 C 13,1 C 56 % 0 lf 1000,5 hPa 0,0 l/m 0,27 h 0,00 h 63 W/m 20,8 km/h (4 Bft) 96,14 %
15.04.2016 20:00 14,6 C 14,2 C 11,9 C 57 % 0 lf 1000,3 hPa 0,0 l/m 0,00 h 0,00 h 15 W/m 14,8 km/h (3 Bft) 97,87 %
15.04.2016 21:00 13,6 C 13,0 C 11,1 C 64 % 0 lf 1000,4 hPa 0,0 l/m 0,00 h 0,03 h 0 W/m 19,0 km/h (3 Bft) 95,28 %
15.04.2016 22:00 12,2 C 11,8 C 10,0 C 71 % 0 lf 1000,1 hPa 0,0 l/m 0,00 h 0,00 h 0 W/m 17,5 km/h (3 Bft) 94,63 %
15.04.2016 23:00 11,3 C 11,1 C 9,4 C 76 % 0 lf 999,8 hPa 0,0 l/m 0,00 h 0,00 h 0 W/m 17,3 km/h (3 Bft) 96,99 %
16.04.2016 00:00 11,0 C 11,1 C 9,4 C 79 % 0 lf 999,5 hPa 0,0 l/m 0,00 h 0,00 h 0 W/m 16,7 km/h (3 Bft) 94,18 %
16.04.2016 01:00 10,9 C 10,8 C 9,3 C 80 % 0 lf 999,1 hPa 0,0 l/m 0,00 h 0,00 h 0 W/m 15,0 km/h (3 Bft) 95,55 %
16.04.2016 02:00 10,6 C 10,6 C 8,9 C 82 % 0 lf 998,7 hPa 0,0 l/m 0,00 h 0,00 h 0 W/m 17,0 km/h (3 Bft) 95,58 %
16.04.2016 03:00 10,4 C 10,5 C 8,9 C 84 % 0 lf 998,4 hPa 0,0 l/m 0,00 h 0,00 h 0 W/m 17,3 km/h (3 Bft) 96,95 %
16.04.2016 04:00 10,5 C 10,7 C 9,2 C 84 % 0 lf 998,0 hPa 0,0 l/m 0,00 h 0,00 h 0 W/m 23,3 km/h (4 Bft) 96,83 %
16.04.2016 05:00 11,1 C 11,1 C 9,5 C 81 % 0 lf 998,0 hPa 0,0 l/m 0,00 h 0,00 h 0 W/m 26,0 km/h (4 Bft) 94,93 %
16.04.2016 06:00 10,7 C 10,6 C 9,2 C 82 % 0 lf 998,6 hPa 0,0 l/m 0,00 h 0,00 h 8 W/m 24,7 km/h (4 Bft) 96,30 %
16.04.2016 07:00 10,4 C 10,6 C 8,9 C 82 % 0 lf 998,9 hPa 0,0 l/m 0,00 h 0,00 h 16 W/m 21,0 km/h (4 Bft) 95,98 %
16.04.2016 08:00 10,4 C 10,9 C 9,2 C 84 % 0 lf 999,3 hPa 0,0 l/m 0,00 h 0,00 h 54 W/m 20,2 km/h (4 Bft) 97,22 %
16.04.2016 09:00 10,8 C 12,4 C 10,4 C 83 % 0 lf 999,7 hPa 0,0 l/m 0,17 h 0,00 h 155 W/m 22,4 km/h (4 Bft) 95,80 %
16.04.2016 10:00 12,1 C 14,8 C 12,3 C 78 % 0 lf 999,9 hPa 0,0 l/m 0,33 h 0,00 h 234 W/m 22,7 km/h (4 Bft) 95,52 %
16.04.2016 11:00 13,7 C 18,8 C 15,6 C 70 % 0 lf 1000,2 hPa 0,0 l/m 0,47 h 0,00 h 461 W/m 27,3 km/h (4 Bft) 95,73 %
16.04.2016 12:00 13,5 C 16,5 C 12,5 C 74 % 12 lf 1000,6 hPa 0,2 l/m 0,50 h 0,20 h 476 W/m 24,8 km/h (4 Bft) 96,66 %
16.04.2016 13:00 14,3 C 18,1 C 13,2 C 69 % 0 lf 1000,5 hPa 0,0 l/m 0,50 h 0,00 h 474 W/m 26,4 km/h (4 Bft) 95,15 %
16.04.2016 14:00 13,9 C 15,2 C 12,6 C 67 % 1 lf 1001,2 hPa 0,0 l/m 0,23 h 0,17 h 265 W/m 28,0 km/h (4 Bft) 97,93 %
16.04.2016 15:00 12,3 C 13,4 C 11,5 C 72 % 0 lf 1001,8 hPa 0,0 l/m 0,13 h 0,13 h 171 W/m 27,6 km/h (4 Bft) 96,58 %
16.04.2016 16:00 12,4 C 14,4 C 12,1 C 71 % 0 lf 1001,7 hPa 0,0 l/m 0,20 h 0,07 h 276 W/m 23,4 km/h (4 Bft) 94,59 %
16.04.2016 17:00 12,5 C 13,0 C 11,6 C 72 % 0 lf 1002,0 hPa 0,0 l/m 0,00 h 0,27 h 125 W/m 19,4 km/h (3 Bft) 96,73 %
16.04.2016 18:00 11,4 C 10,7 C 8,3 C 77 % 13 lf 1002,5 hPa 0,2 l/m 0,10 h 0,53 h 60 W/m 19,9 km/h (4 Bft) 96,51 %
16.04.2016 19:00 10,0 C 10,0 C 8,2 C 78 % 0 lf 1003,0 hPa 0,0 l/m 0,00 h 0,27 h 38 W/m 15,7 km/h (3 Bft) 95,66 %
16.04.2016 20:00 9,0 C 8,7 C 7,5 C 76 % 0 lf 1003,5 hPa 0,0 l/m 0,00 h 0,03 h 7 W/m 15,5 km/h (3 Bft) 96,23 %
16.04.2016 21:00 8,3 C 7,9 C 6,9 C 78 % 0 lf 1004,2 hPa 0,0 l/m 0,00 h 0,00 h 0 W/m 12,6 km/h (3 Bft) 94,45 %
16.04.2016 22:00 7,6 C 6,9 C 5,9 C 80 % 0 lf 1004,6 hPa 0,0 l/m 0,00 h 0,00 h 0 W/m 10,3 km/h (2 Bft) 95,94 %
16.04.2016 23:00 6,6 C 5,5 C 4,7 C 82 % 0 lf 1004,5 hPa 0,0 l/m 0,00 h 0,00 h 0 W/m 5,5 km/h (1 Bft) 97,36 %
17.04.2016 00:00 5,8 C 5,0 C 4,1 C 85 % 0 lf 1004,9 hPa 0,0 l/m 0,00 h 0,00 h 0 W/m 5,9 km/h (2 Bft) 93,95 %
17.04.2016 01:00 5,3 C 4,7 C 3,8 C 87 % 0 lf 1005,3 hPa 0,0 l/m 0,00 h 0,00 h 0 W/m 5,9 km/h (2 Bft) 94,95 %
17.04.2016 02:00 5,0 C 4,8 C 4,2 C 89 % 0 lf 1005,7 hPa 0,0 l/m 0,00 h 0,00 h 0 W/m 4,7 km/h (1 Bft) 98,15 %
17.04.2016 03:00 5,3 C 5,6 C 4,9 C 91 % 0 lf 1006,1 hPa 0,0 l/m 0,00 h 0,00 h 0 W/m 5,3 km/h (1 Bft) 95,09 %
17.04.2016 04:00 5,6 C 5,6 C 5,0 C 91 % 0 lf 1006,2 hPa 0,0 l/m 0,00 h 0,00 h 0 W/m 9,3 km/h (2 Bft) 96,98 %
17.04.2016 05:00 5,5 C 4,9 C 4,1 C 91 % 0 lf 1006,6 hPa 0,0 l/m 0,00 h 0,00 h 0 W/m 7,1 km/h (2 Bft) 95,44 %
17.04.2016 06:00 4,8 C 3,7 C 3,1 C 91 % 1 lf 1007,1 hPa 0,0 l/m 0,00 h 0,00 h 9 W/m 5,4 km/h (1 Bft) 95,16 %
17.04.2016 07:00 4,6 C 5,3 C 4,2 C 92 % 0 lf 1008,0 hPa 0,0 l/m 0,00 h 0,00 h 40 W/m 8,5 km/h (2 Bft) 97,29 %
17.04.2016 08:00 5,4 C 7,6 C 5,6 C 93 % 0 lf 1008,8 hPa 0,0 l/m 0,40 h 0,00 h 160 W/m 9,9 km/h (2 Bft) 95,80 %
17.04.2016 09:00 7,3 C 15,3 C 8,3 C 83 % 0 lf 1009,3 hPa 0,0 l/m 0,93 h 0,00 h 460 W/m 15,0 km/h (3 Bft) 95,87 %
17.04.2016 10:00 9,2 C 16,4 C 12,5 C 69 % 0 lf 1010,2 hPa 0,0 l/m 0,63 h 0,00 h 485 W/m 18,0 km/h (3 Bft) 96,23 %
17.04.2016 11:00 9,8 C 16,0 C 12,1 C 64 % 0 lf 1011,1 hPa 0,0 l/m 0,43 h 0,00 h 481 W/m 16,2 km/h (3 Bft) 96,58 %
17.04.2016 12:00 10,7 C 14,5 C 11,7 C 61 % 0 lf 1011,7 hPa 0,0 l/m 0,47 h 0,00 h 377 W/m 18,3 km/h (3 Bft) 96,37 %
17.04.2016 13:00 11,0 C 17,3 C 10,8 C 60 % 0 lf 1012,1 hPa 0,0 l/m 0,53 h 0,00 h 482 W/m 15,3 km/h (3 Bft) 95,16 %
17.04.2016 14:00 11,9 C 17,8 C 11,3 C 57 % 0 lf 1012,4 hPa 0,0 l/m 0,47 h 0,00 h 481 W/m 14,1 km/h (3 Bft) 96,94 %
17.04.2016 15:00 11,7 C 13,1 C 10,1 C 57 % 0 lf 1012,7 hPa 0,0 l/m 0,13 h 0,00 h 202 W/m 17,0 km/h (3 Bft) 94,45 %
17.04.2016 16:00 10,5 C 12,2 C 9,7 C 63 % 0 lf 1013,1 hPa 0,0 l/m 0,03 h 0,00 h 156 W/m 18,1 km/h (3 Bft) 97,51 %
17.04.2016 17:00 10,4 C 14,8 C 9,2 C 65 % 0 lf 1013,9 hPa 0,0 l/m 0,87 h 0,00 h 434 W/m 21,1 km/h (4 Bft) 95,87 %
17.04.2016 18:00 10,7 C 11,5 C 8,8 C 61 % 0 lf 1014,4 hPa 0,0 l/m 0,63 h 0,00 h 215 W/m 16,2 km/h (3 Bft) 94,80 %
17.04.2016 19:00 9,5 C 9,3 C 7,9 C 65 % 0 lf 1015,0 hPa 0,0 l/m 0,40 h 0,00 h 68 W/m 15,5 km/h (3 Bft) 96,29 %
17.04.2016 20:00 8,6 C 8,0 C 6,9 C 71 % 0 lf 1015,8 hPa 0,0 l/m 0,37 h 0,00 h 21 W/m 9,0 km/h (2 Bft) 95,66 %
17.04.2016 21:00 7,5 C 5,8 C 4,8 C 72 % 0 lf 1016,9 hPa 0,0 l/m 0,00 h 0,00 h 0 W/m 3,3 km/h (1 Bft) 96,80 %
17.04.2016 22:00 6,3 C 4,9 C 4,0 C 76 % 0 lf 1017,5 hPa 0,0 l/m 0,00 h 0,00 h 0 W/m 0,0 km/h (0 Bft) 96,72 %
17.04.2016 23:00 5,2 C 3,8 C 2,9 C 80 % 0 lf 1018,1 hPa 0,0 l/m 0,00 h 0,00 h 0 W/m 2,4 km/h (1 Bft) 95,30 %
Min-Datum _ 14.04.16 17.04.16 17.04.16 12.04.16 11.04.16 16.04.16 - - - - 12.04.16 16.04.16
_ Min-Zeit 07:24 23:58 23:56 15:50 00:00 04:34 - - - - 00:42 00:02
Minimum _ 4,1 C 2,8 C 2,2 C 40 % 0 lf 997,8 hPa - - - - 0,0 km/h (0 Bft) 16,67 %
Max-Datum _ 11.04.16 12.04.16 12.04.16 13.04.16 12.04.16 17.04.16 12.04.16 11.04.16 11.04.16 15.04.16 12.04.16 11.04.16
_ Max-Zeit 16:24 12:20 11:48 10:40 00:28 23:52 19:42 07:12 23:54 13:28 18:12 01:16
Maximum _ 21,2 C 29,4 C 24,4 C 99 % 15 lf 1018,3 hPa 3,4 l/m 0,03 h 0,03 h 1032 W/m 56,5 km/h
W-SW (7 Bft)
100,00 %
Durchschnitt _ 11,6 C 12,9 C 10,4 C 76 % 3 lf 1007,4 hPa #8,0 l/m #43:44 h #9:34 h 276 W/m 13,7 km/h (3 Bft) 96,14 %
© 2016 W. Hausmann